This is the latest recevied weather packets stored in our database for station/object K4FB. If no packets are shown the sender has not sent any weather packets the latest 10 day(s).
| Time | Temp. | Humidity | Pressure | Rain* | Wind** | Luminosity | Snow |
|---|---|---|---|---|---|---|---|
| 1777503907 | 30° C | 52% | 1012.4 hPa | 0 mm | - | - | - |
| 1777503607 | 30.56° C | 51% | 1012.3 hPa | 0 mm | - | - | - |
| 1777500009 | 34.44° C | 40% | 1012.3 hPa | 0 mm | - | - | - |
| 1777497608 | 35° C | 38% | 1012.8 hPa | 0 mm | - | - | - |
| 1777496710 | 35° C | 38% | 1013.1 hPa | 0 mm | - | - | - |
| 1777495204 | 36.11° C | 38% | 1013.3 hPa | 0 mm | - | - | - |
| 1777493718 | 36.11° C | 40% | 1013.7 hPa | 0 mm | - | - | - |
| 1777491010 | 33.89° C | 44% | 1014.7 hPa | 0 mm | - | - | - |
| 1777490704 | 33.89° C | 41% | 1014.9 hPa | 0 mm | - | - | - |
| 1777489510 | 33.89° C | 45% | 1015.4 hPa | 0 mm | - | - | - |
| 1777488011 | 33.33° C | 45% | 1015.7 hPa | 0 mm | - | - | - |
| 1777485906 | 31.67° C | 53% | 1016.2 hPa | 0 mm | - | - | - |
| 1777484403 | 32.78° C | 47% | 1016.6 hPa | 0 mm | - | - | - |
| 1777484105 | 32.78° C | 54% | 1016.8 hPa | 0 mm | - | - | - |
| 1777483502 | 32.22° C | 53% | 1016.9 hPa | 0 mm | - | - | - |
| 1777482023 | 31.11° C | 50% | 1017.3 hPa | 0 mm | - | - | - |
| 1777480503 | 30° C | 55% | 1017.8 hPa | 0 mm | - | - | - |
| 1777478705 | 30° C | 53% | 1018.5 hPa | 0 mm | - | - | - |
| 1777476005 | 28.89° C | 60% | 1018.6 hPa | 0 mm | - | - | - |
| 1777474208 | 27.78° C | 68% | 1018.8 hPa | 0 mm | - | - | - |
| 1777473609 | 26.67° C | 72% | 1018.9 hPa | 0 mm | - | - | - |
| 1777473012 | 26.67° C | 72% | 1018.8 hPa | 0 mm | - | - | - |
| 1777470609 | 23.33° C | 83% | 1018.8 hPa | 0 mm | - | - | - |
| 1777470005 | 23.33° C | 86% | 1018.8 hPa | 0 mm | - | - | - |
| 1777469704 | 22.78° C | 86% | 1018.6 hPa | 0 mm | - | - | - |
* Rain latest hour (hover to see other rain measurements)
** Current wind speed in m/s (hover to see current wind gust speed)